Time;durP1;ratioP1;P1;durP2;ratioP2;P2;SDS_P1;SDS_P2;PMS_P1;PMS_P2;Temp;Humidity;BMP_temperature;BMP_pressure;BME280_temperature;BME280_humidity;BME280_pressure;Samples;Min_cycle;Max_cycle;Signal;HPM_P1;HPM_P2
2024/03/03 00:02:10;;;;;;;46.57;36.23;;;10.10;1.00;;;;;;5088378;28;21336;-73
2024/03/03 00:04:37;;;;;;;42.77;38.07;;;10.00;1.00;;;;;;5095963;28;21454;-74
2024/03/03 00:07:04;;;;;;;44.77;37.27;;;10.00;1.00;;;;;;5096808;28;21178;-73
2024/03/03 00:09:33;;;;;;;62.17;41.47;;;10.00;1.00;;;;;;5113122;27;20469;-73
2024/03/03 00:12:00;;;;;;;48.13;37.97;;;10.00;1.00;;;;;;5112273;27;20485;-72
2024/03/03 00:14:27;;;;;;;45.83;38.40;;;9.90;1.00;;;;;;5112801;27;21054;-75
2024/03/03 00:16:56;;;;;;;47.90;38.60;;;10.00;1.00;;;;;;5111575;27;20469;-74
2024/03/03 00:19:23;;;;;;;53.00;41.50;;;10.00;1.00;;;;;;5110121;27;20569;-75
2024/03/03 00:21:50;;;;;;;50.70;38.90;;;10.00;1.00;;;;;;5114125;27;20493;-75
2024/03/03 00:24:17;;;;;;;48.40;38.80;;;9.90;1.00;;;;;;5112181;27;20540;-76
2024/03/03 00:26:44;;;;;;;48.50;39.87;;;9.90;1.00;;;;;;5108165;27;20468;-75
2024/03/03 00:29:11;;;;;;;51.20;38.40;;;9.90;1.00;;;;;;5113678;27;20496;-76
2024/03/03 00:31:43;;;;;;;50.13;38.70;;;9.90;1.00;;;;;;5113155;27;20499;-77
2024/03/03 00:34:12;;;;;;;42.07;37.67;;;10.00;1.00;;;;;;5115220;27;20474;-76
2024/03/03 00:36:38;;;;;;;48.50;41.33;;;10.00;1.00;;;;;;5113486;27;20490;-76
2024/03/03 00:39:05;;;;;;;49.83;37.80;;;9.90;1.00;;;;;;5109358;27;20469;-76
2024/03/03 00:41:32;;;;;;;48.33;40.40;;;9.90;1.00;;;;;;5112773;27;20446;-75
2024/03/03 00:43:59;;;;;;;49.43;40.80;;;9.80;1.00;;;;;;5110068;27;20490;-76
2024/03/03 00:46:26;;;;;;;49.57;40.17;;;9.80;1.00;;;;;;5108552;27;20539;-75
2024/03/03 00:48:53;;;;;;;48.53;38.90;;;9.80;1.00;;;;;;5093253;28;20565;-75
2024/03/03 00:51:22;;;;;;;44.97;40.03;;;9.70;1.00;;;;;;5091747;28;20463;-76
2024/03/03 00:53:49;;;;;;;53.73;42.60;;;9.70;1.00;;;;;;5091306;28;20550;-75
2024/03/03 00:56:15;;;;;;;52.90;43.23;;;9.60;1.00;;;;;;5091629;28;20562;-77
2024/03/03 00:58:42;;;;;;;55.80;43.33;;;9.60;1.00;;;;;;5096850;27;20592;-76
2024/03/03 01:01:11;;;;;;;53.00;42.50;;;9.50;1.00;;;;;;5093757;28;20490;-76
2024/03/03 01:03:40;;;;;;;54.57;43.47;;;9.50;1.00;;;;;;5110261;27;20828;-74
2024/03/03 01:06:07;;;;;;;57.33;42.87;;;9.50;1.00;;;;;;5110463;27;20465;-76
2024/03/03 01:08:36;;;;;;;52.17;40.90;;;9.40;1.00;;;;;;5090657;27;20532;-76
2024/03/03 01:11:03;;;;;;;57.70;44.83;;;9.40;1.00;;;;;;5093009;28;20546;-74
2024/03/03 01:13:33;;;;;;;52.87;41.50;;;9.40;1.00;;;;;;5095835;28;20459;-74
2024/03/03 01:16:02;;;;;;;56.40;43.47;;;9.40;1.00;;;;;;5094170;28;20519;-76
2024/03/03 01:18:29;;;;;;;53.57;42.63;;;9.40;1.00;;;;;;5093012;28;20532;-75
2024/03/03 01:20:57;;;;;;;54.33;40.67;;;9.30;1.00;;;;;;5094080;28;20550;-75
2024/03/03 01:23:24;;;;;;;53.07;42.37;;;9.40;1.00;;;;;;5107593;27;20455;-75
2024/03/03 01:25:53;;;;;;;55.40;41.87;;;9.30;1.00;;;;;;5105293;27;20485;-74
2024/03/03 01:28:20;;;;;;;52.80;41.20;;;9.30;1.00;;;;;;5109970;27;20976;-75
2024/03/03 01:30:47;;;;;;;52.57;43.30;;;9.30;1.00;;;;;;5113583;27;20457;-73
2024/03/03 01:33:14;;;;;;;55.37;41.20;;;9.30;1.00;;;;;;5094056;28;20466;-73
2024/03/03 01:35:41;;;;;;;51.83;39.97;;;9.30;1.00;;;;;;5095545;27;20446;-72
2024/03/03 01:38:08;;;;;;;50.07;42.57;;;9.20;1.00;;;;;;5094676;27;21337;-76
2024/03/03 01:40:35;;;;;;;51.17;41.53;;;9.20;1.00;;;;;;5090324;28;20457;-74
2024/03/03 01:43:05;;;;;;;55.43;43.60;;;9.20;1.00;;;;;;5099487;27;20449;-74
2024/03/03 01:45:31;;;;;;;55.67;43.27;;;9.20;1.00;;;;;;5113388;27;20966;-72
2024/03/03 01:47:59;;;;;;;51.70;44.07;;;9.10;1.00;;;;;;5093871;28;21069;-72
2024/03/03 01:50:27;;;;;;;51.93;40.80;;;9.10;1.00;;;;;;5096355;28;20549;-74
2024/03/03 01:52:55;;;;;;;58.17;43.70;;;9.00;1.00;;;;;;5092380;28;20451;-73
2024/03/03 01:55:23;;;;;;;56.80;42.47;;;9.00;1.00;;;;;;5092406;28;20549;-73
2024/03/03 01:57:56;;;;;;;58.27;44.03;;;9.00;1.00;;;;;;5091249;27;20932;-73
2024/03/03 02:00:25;;;;;;;58.13;43.17;;;9.00;1.00;;;;;;5091059;28;20838;-74
2024/03/03 02:02:52;;;;;;;57.50;43.73;;;9.00;1.00;;;;;;5092214;28;20459;-73
2024/03/03 02:05:20;;;;;;;51.70;42.00;;;9.00;1.00;;;;;;5096777;27;20461;-73
2024/03/03 02:07:49;;;;;;;58.27;43.83;;;9.00;1.00;;;;;;5110000;27;20474;-75
2024/03/03 02:10:16;;;;;;;54.83;42.37;;;9.00;1.00;;;;;;5091530;28;20455;-73
2024/03/03 02:12:46;;;;;;;54.47;42.80;;;8.90;1.00;;;;;;5090977;28;20422;-72
2024/03/03 02:15:14;;;;;;;54.80;42.37;;;8.90;1.00;;;;;;5089591;28;20483;-72
2024/03/03 02:17:42;;;;;;;52.60;43.40;;;8.90;1.00;;;;;;5089439;28;20481;-71
2024/03/03 02:20:10;;;;;;;50.70;41.87;;;8.90;1.00;;;;;;5089634;28;20462;-73
2024/03/03 02:22:39;;;;;;;54.27;43.13;;;8.90;1.00;;;;;;5090787;28;20540;-74
2024/03/03 02:25:09;;;;;;;54.27;42.73;;;8.90;1.00;;;;;;5089130;28;20966;-75
2024/03/03 02:27:37;;;;;;;56.70;43.77;;;8.90;1.00;;;;;;5109939;27;20461;-73
2024/03/03 02:30:06;;;;;;;59.53;45.00;;;8.90;1.00;;;;;;5110021;27;20462;-73
2024/03/03 02:32:33;;;;;;;55.63;41.90;;;8.80;1.00;;;;;;5107390;27;20521;-73
2024/03/03 02:35:01;;;;;;;52.47;44.40;;;8.80;1.00;;;;;;5104842;27;21139;-77
2024/03/03 02:37:29;;;;;;;54.10;42.77;;;8.80;1.00;;;;;;5108802;27;20454;-74
2024/03/03 02:39:57;;;;;;;51.40;41.50;;;8.80;1.00;;;;;;5107660;27;20515;-72
2024/03/03 02:42:24;;;;;;;62.60;44.20;;;8.80;1.00;;;;;;5108931;27;20471;-72
2024/03/03 02:44:52;;;;;;;56.27;43.93;;;8.80;1.00;;;;;;5104063;27;20516;-73
2024/03/03 02:47:19;;;;;;;54.20;42.77;;;8.70;1.00;;;;;;5087899;28;20552;-73
2024/03/03 02:49:46;;;;;;;52.07;43.37;;;8.80;1.00;;;;;;5091045;28;20454;-72
2024/03/03 02:52:13;;;;;;;52.33;40.70;;;8.70;1.00;;;;;;5090798;28;20571;-75
2024/03/03 02:54:40;;;;;;;56.60;43.43;;;8.70;1.00;;;;;;5106254;27;20938;-75
2024/03/03 02:57:08;;;;;;;55.77;44.00;;;8.70;1.00;;;;;;5093288;28;20478;-75
2024/03/03 02:59:35;;;;;;;51.30;43.60;;;8.70;1.00;;;;;;5093286;28;20474;-72
2024/03/03 03:02:02;;;;;;;55.87;43.33;;;8.70;1.00;;;;;;5097000;28;20537;-77
2024/03/03 03:04:29;;;;;;;53.10;43.07;;;8.70;1.00;;;;;;5094353;27;20448;-73
2024/03/03 03:06:56;;;;;;;57.50;43.73;;;8.70;1.00;;;;;;5104570;27;21731;-72
2024/03/03 03:09:23;;;;;;;58.50;45.40;;;8.70;1.00;;;;;;5089606;27;20504;-73
2024/03/03 03:11:50;;;;;;;53.30;43.57;;;8.70;1.00;;;;;;5079958;28;20517;-73
2024/03/03 03:14:19;;;;;;;53.17;43.97;;;8.70;1.00;;;;;;5094331;28;20634;-73
2024/03/03 03:16:46;;;;;;;52.93;43.70;;;8.70;1.00;;;;;;5091388;28;20510;-72
2024/03/03 03:19:13;;;;;;;54.00;44.10;;;8.70;1.00;;;;;;5092473;28;20454;-73
2024/03/03 03:21:40;;;;;;;61.03;45.47;;;8.60;1.00;;;;;;5091975;28;20474;-74
2024/03/03 03:24:06;;;;;;;57.57;45.03;;;8.60;1.00;;;;;;5092122;28;20459;-72
2024/03/03 03:26:33;;;;;;;55.43;45.30;;;8.70;1.00;;;;;;5093680;28;20565;-73
2024/03/03 03:29:01;;;;;;;55.50;43.67;;;8.70;1.00;;;;;;5094048;28;20457;-73
2024/03/03 03:31:30;;;;;;;52.20;44.77;;;8.70;1.00;;;;;;5091535;28;20473;-73
2024/03/03 03:33:57;;;;;;;53.47;44.70;;;8.70;1.00;;;;;;5092148;28;20462;-73
2024/03/03 03:36:24;;;;;;;60.10;45.67;;;8.70;1.00;;;;;;5091586;28;20469;-73
2024/03/03 03:38:51;;;;;;;55.17;43.83;;;8.70;1.00;;;;;;5094985;28;20602;-73
2024/03/03 03:41:19;;;;;;;56.90;46.13;;;8.60;1.00;;;;;;5090387;28;20435;-73
2024/03/03 03:43:47;;;;;;;56.17;43.37;;;8.70;1.00;;;;;;5103900;27;21695;-73
2024/03/03 03:46:14;;;;;;;57.53;43.00;;;8.70;1.00;;;;;;5108128;27;20546;-73
2024/03/03 03:48:42;;;;;;;55.80;45.83;;;8.70;1.00;;;;;;5113169;27;21076;-74
2024/03/03 03:51:09;;;;;;;59.33;45.10;;;8.70;1.00;;;;;;5109405;27;20509;-72
2024/03/03 03:53:36;;;;;;;56.83;44.73;;;8.70;1.00;;;;;;5114195;27;20507;-74
2024/03/03 03:56:03;;;;;;;59.20;46.90;;;8.70;1.00;;;;;;5095492;27;21049;-74
2024/03/03 03:58:30;;;;;;;63.10;46.20;;;8.70;1.00;;;;;;5089401;28;20518;-72
2024/03/03 04:00:57;;;;;;;59.70;46.60;;;8.80;1.00;;;;;;5100622;27;20494;-73
2024/03/03 04:03:24;;;;;;;53.10;45.37;;;8.90;1.00;;;;;;5102793;27;20454;-73
2024/03/03 04:05:53;;;;;;;60.03;45.03;;;8.90;1.00;;;;;;5106782;27;21319;-74
2024/03/03 04:08:19;;;;;;;57.20;46.40;;;8.90;1.00;;;;;;5089282;28;20512;-77
2024/03/03 04:10:49;;;;;;;55.43;46.70;;;8.90;1.00;;;;;;5094744;28;20545;-75
2024/03/03 04:13:16;;;;;;;57.47;46.07;;;8.80;1.00;;;;;;5104548;27;20511;-77
2024/03/03 04:15:43;;;;;;;60.20;46.80;;;8.90;1.00;;;;;;5109166;27;20505;-74
2024/03/03 04:18:09;;;;;;;62.43;47.07;;;8.80;1.00;;;;;;5091503;28;20483;-75
2024/03/03 04:20:36;;;;;;;59.70;47.83;;;8.90;1.00;;;;;;5093590;28;20489;-75
2024/03/03 04:23:05;;;;;;;58.63;46.80;;;8.80;1.00;;;;;;5094254;28;20458;-74
2024/03/03 04:25:32;;;;;;;62.47;47.43;;;8.80;1.00;;;;;;5116168;27;20462;-75
2024/03/03 04:27:59;;;;;;;60.60;46.50;;;8.80;1.00;;;;;;5116020;27;20572;-74
2024/03/03 04:30:26;;;;;;;65.03;49.53;;;8.80;1.00;;;;;;5093378;28;20459;-75
2024/03/03 04:32:53;;;;;;;60.53;48.57;;;8.90;1.00;;;;;;5095212;28;22342;-75
2024/03/03 04:35:20;;;;;;;61.10;46.80;;;8.90;1.00;;;;;;5094165;28;20466;-75
2024/03/03 04:37:47;;;;;;;61.30;46.40;;;8.90;1.00;;;;;;5093420;28;20509;-75
2024/03/03 04:40:16;;;;;;;55.97;45.63;;;8.80;1.00;;;;;;5096329;28;20916;-75
2024/03/03 04:42:43;;;;;;;67.73;48.67;;;8.80;1.00;;;;;;5103103;28;21309;-76
2024/03/03 04:45:10;;;;;;;64.40;48.73;;;8.80;1.00;;;;;;5082183;28;20958;-76
2024/03/03 04:47:38;;;;;;;60.70;47.10;;;8.90;1.00;;;;;;5097748;28;20468;-75
2024/03/03 04:50:09;;;;;;;61.20;48.57;;;8.90;1.00;;;;;;5101182;27;20466;-75
2024/03/03 04:52:37;;;;;;;57.13;46.80;;;8.90;1.00;;;;;;5091954;28;20485;-77
2024/03/03 04:55:05;;;;;;;58.13;47.10;;;9.00;1.00;;;;;;5095920;27;20473;-75
2024/03/03 04:57:35;;;;;;;61.23;48.13;;;8.90;1.00;;;;;;5096648;27;20457;-76
2024/03/03 05:00:07;;;;;;;56.80;45.87;;;8.90;1.00;;;;;;5097275;27;20443;-75
2024/03/03 05:02:34;;;;;;;59.47;47.13;;;8.90;1.00;;;;;;5088687;28;20982;-76
2024/03/03 05:05:01;;;;;;;60.20;46.17;;;8.90;1.00;;;;;;5095787;27;20498;-77
2024/03/03 05:07:29;;;;;;;64.43;48.03;;;8.90;1.00;;;;;;5090816;28;20486;-75
2024/03/03 05:09:55;;;;;;;62.07;50.00;;;8.90;1.00;;;;;;5091941;28;21381;-76
2024/03/03 05:12:22;;;;;;;60.43;46.17;;;8.90;1.00;;;;;;5093041;28;20478;-76
2024/03/03 05:14:51;;;;;;;57.13;46.07;;;8.90;1.00;;;;;;5090827;28;20561;-76
2024/03/03 05:17:19;;;;;;;60.13;46.77;;;8.90;1.00;;;;;;5098991;27;20540;-74
2024/03/03 05:19:45;;;;;;;60.60;49.00;;;8.90;1.00;;;;;;5089444;28;20462;-73
2024/03/03 05:22:12;;;;;;;58.90;48.23;;;8.90;1.00;;;;;;5090823;28;20541;-74
2024/03/03 05:24:39;;;;;;;63.20;48.80;;;9.00;1.00;;;;;;5090491;28;20573;-74
2024/03/03 05:27:06;;;;;;;58.67;47.60;;;9.00;1.00;;;;;;5100032;27;20520;-74
2024/03/03 05:29:34;;;;;;;59.70;48.07;;;8.90;1.00;;;;;;5094279;28;20478;-72
2024/03/03 05:32:02;;;;;;;60.87;48.03;;;9.00;1.00;;;;;;5088460;28;20540;-72
2024/03/03 05:34:29;;;;;;;57.27;47.73;;;9.10;1.00;;;;;;5088416;28;20450;-73
2024/03/03 05:36:56;;;;;;;61.63;48.23;;;9.10;1.00;;;;;;5088612;28;20556;-73
2024/03/03 05:39:23;;;;;;;59.63;47.47;;;9.20;1.00;;;;;;5089203;28;21051;-73
2024/03/03 05:41:50;;;;;;;60.30;48.33;;;9.20;1.00;;;;;;5089496;28;21066;-73
2024/03/03 05:44:17;;;;;;;57.80;46.30;;;9.20;1.00;;;;;;5088775;27;20506;-75
2024/03/03 05:46:44;;;;;;;61.87;47.17;;;9.20;1.00;;;;;;5087887;28;21052;-73
2024/03/03 05:49:12;;;;;;;57.80;46.20;;;9.30;1.00;;;;;;5089213;27;21012;-73
2024/03/03 05:51:39;;;;;;;56.83;47.17;;;9.30;1.00;;;;;;5087712;28;20540;-73
2024/03/03 05:54:06;;;;;;;59.27;48.47;;;9.30;1.00;;;;;;5099933;27;20509;-73
2024/03/03 05:56:33;;;;;;;59.40;48.13;;;9.30;1.00;;;;;;5098708;28;20477;-73
2024/03/03 05:59:00;;;;;;;58.43;48.27;;;9.30;1.00;;;;;;5094716;27;20472;-73
2024/03/03 06:01:28;;;;;;;56.20;48.00;;;9.30;1.00;;;;;;5108421;27;20827;-75
2024/03/03 06:03:55;;;;;;;52.50;46.40;;;9.40;1.00;;;;;;5108725;27;20468;-73
2024/03/03 06:06:23;;;;;;;59.73;47.20;;;9.40;1.00;;;;;;5110164;27;21366;-73
2024/03/03 06:08:51;;;;;;;54.80;47.00;;;9.40;1.00;;;;;;5094248;27;20572;-74
2024/03/03 06:11:18;;;;;;;58.53;48.13;;;9.50;1.00;;;;;;5089327;28;20446;-75
2024/03/03 06:13:45;;;;;;;51.50;45.00;;;9.60;1.00;;;;;;5096904;27;20465;-72
2024/03/03 06:16:12;;;;;;;57.83;47.90;;;9.60;1.00;;;;;;5111160;27;20485;-74
2024/03/03 06:18:39;;;;;;;56.47;45.90;;;9.60;1.00;;;;;;5090439;27;20590;-76
2024/03/03 06:21:07;;;;;;;53.03;45.70;;;9.60;1.00;;;;;;5089165;28;20970;-72
2024/03/03 06:23:36;;;;;;;58.53;49.23;;;9.60;1.00;;;;;;5098324;27;20565;-73
2024/03/03 06:26:04;;;;;;;58.90;47.67;;;9.70;1.00;;;;;;5090952;28;20951;-75
2024/03/03 06:28:31;;;;;;;55.03;47.13;;;9.70;1.00;;;;;;5092158;28;20538;-75
2024/03/03 06:31:01;;;;;;;53.37;46.57;;;9.70;1.00;;;;;;5106347;27;20969;-76
2024/03/03 06:33:28;;;;;;;53.00;46.10;;;9.80;1.00;;;;;;5094724;28;20510;-76
2024/03/03 06:35:55;;;;;;;54.83;46.77;;;9.80;1.00;;;;;;5097179;28;20470;-76
2024/03/03 06:38:22;;;;;;;55.97;46.93;;;9.80;1.00;;;;;;5111767;27;20515;-76
2024/03/03 06:40:50;;;;;;;54.53;46.83;;;9.80;1.00;;;;;;5112994;27;20462;-75
2024/03/03 06:43:20;;;;;;;53.17;45.87;;;9.80;1.00;;;;;;5112784;27;20523;-76
2024/03/03 06:45:49;;;;;;;54.43;47.97;;;9.80;1.00;;;;;;5088280;28;20431;-76
2024/03/03 06:48:16;;;;;;;58.10;50.73;;;9.90;1.00;;;;;;5101513;27;20482;-75
2024/03/03 06:50:43;;;;;;;54.83;46.03;;;9.90;1.00;;;;;;5086144;28;20419;-76
2024/03/03 06:53:10;;;;;;;56.17;47.60;;;10.00;1.00;;;;;;5094515;28;20551;-76
2024/03/03 06:55:40;;;;;;;58.03;47.40;;;10.00;1.00;;;;;;5097772;27;21045;-77
2024/03/03 06:58:09;;;;;;;53.53;46.67;;;10.10;1.00;;;;;;5093075;28;20465;-76
2024/03/03 07:00:37;;;;;;;55.37;47.57;;;10.30;1.00;;;;;;5091279;28;20457;-76
2024/03/03 07:03:29;;;;;;;55.33;47.07;;;10.30;1.00;;;;;;5093173;28;20506;-75
2024/03/03 07:05:57;;;;;;;53.27;46.40;;;10.50;1.00;;;;;;5091045;28;20663;-75
2024/03/03 07:08:26;;;;;;;55.40;47.43;;;10.50;1.00;;;;;;5090694;28;20461;-77
2024/03/03 07:10:52;;;;;;;51.57;45.23;;;10.60;1.00;;;;;;5095366;28;20482;-77
2024/03/03 07:13:21;;;;;;;54.37;47.10;;;10.70;1.00;;;;;;5095093;28;21049;-75
2024/03/03 07:15:48;;;;;;;55.17;46.70;;;10.80;1.00;;;;;;5107523;27;21003;-75
2024/03/03 07:18:15;;;;;;;51.90;44.63;;;10.70;1.00;;;;;;5100472;27;21322;-75
2024/03/03 07:20:42;;;;;;;55.50;46.27;;;10.70;1.00;;;;;;5104163;27;20493;-76
2024/03/03 07:23:09;;;;;;;55.03;46.67;;;10.70;1.00;;;;;;5093254;28;20530;-75
2024/03/03 07:25:36;;;;;;;51.50;44.97;;;10.70;1.00;;;;;;5094953;28;21020;-74
2024/03/03 07:28:03;;;;;;;51.33;43.63;;;10.60;1.00;;;;;;5096034;28;20459;-75
2024/03/03 07:30:31;;;;;;;56.30;46.83;;;10.50;1.00;;;;;;5093796;28;20497;-75
2024/03/03 07:32:59;;;;;;;53.03;44.90;;;10.60;1.00;;;;;;5095648;28;20611;-75
2024/03/03 07:35:26;;;;;;;55.20;46.10;;;10.60;1.00;;;;;;5090375;28;20455;-75
2024/03/03 07:37:55;;;;;;;51.57;43.97;;;10.80;1.00;;;;;;5091932;28;20512;-74
2024/03/03 07:40:22;;;;;;;52.20;45.10;;;10.80;1.00;;;;;;5090473;28;20451;-78
2024/03/03 07:42:49;;;;;;;51.73;44.07;;;10.90;1.00;;;;;;5091921;28;20535;-73
2024/03/03 07:45:16;;;;;;;47.63;41.67;;;11.00;1.00;;;;;;5098834;27;20478;-72
2024/03/03 07:47:44;;;;;;;48.53;43.20;;;11.00;1.00;;;;;;5092363;28;20467;-72
2024/03/03 07:50:12;;;;;;;45.63;39.93;;;11.10;1.00;;;;;;5090067;28;20554;-73
2024/03/03 07:52:39;;;;;;;48.10;43.00;;;11.20;1.00;;;;;;5091434;28;21063;-73
2024/03/03 07:55:07;;;;;;;52.90;42.20;;;11.30;1.00;;;;;;5100773;27;20442;-73
2024/03/03 07:57:33;;;;;;;44.47;39.23;;;11.40;1.00;;;;;;5092767;28;20446;-74
2024/03/03 08:00:01;;;;;;;43.97;39.23;;;11.60;1.00;;;;;;5091481;28;20506;-71
2024/03/03 08:02:29;;;;;;;45.90;40.80;;;11.70;1.00;;;;;;5087759;27;21247;-73
2024/03/03 08:04:57;;;;;;;46.07;39.50;;;11.60;1.00;;;;;;5104559;27;20851;-73
2024/03/03 08:07:25;;;;;;;42.57;37.67;;;11.60;1.00;;;;;;5091598;28;20494;-75
2024/03/03 08:09:52;;;;;;;43.73;38.33;;;11.70;1.00;;;;;;5091993;28;21053;-73
2024/03/03 08:12:19;;;;;;;42.60;38.00;;;11.90;1.00;;;;;;5094103;28;20505;-73
2024/03/03 08:14:46;;;;;;;42.60;37.90;;;12.00;1.00;;;;;;5090202;28;22490;-73
2024/03/03 08:17:13;;;;;;;42.30;35.93;;;12.10;1.00;;;;;;5091536;27;20935;-74
2024/03/03 08:19:40;;;;;;;39.83;35.60;;;12.20;1.00;;;;;;5102162;27;21246;-72
2024/03/03 08:22:09;;;;;;;42.00;37.23;;;12.40;1.00;;;;;;5090109;28;21025;-73
2024/03/03 08:24:37;;;;;;;42.37;37.87;;;12.40;1.00;;;;;;5099945;27;20449;-73
2024/03/03 08:27:05;;;;;;;40.63;36.30;;;12.50;1.00;;;;;;5102149;27;20452;-73
2024/03/03 08:29:32;;;;;;;39.97;35.67;;;12.40;1.00;;;;;;5092820;28;20438;-73
2024/03/03 08:31:59;;;;;;;44.00;34.50;;;12.50;1.00;;;;;;5104666;27;20555;-77
2024/03/03 08:34:26;;;;;;;37.07;33.20;;;12.40;1.00;;;;;;5087570;28;21312;-74
2024/03/03 08:36:52;;;;;;;38.27;34.07;;;12.50;1.00;;;;;;5093396;28;20552;-73
2024/03/03 08:39:21;;;;;;;37.33;33.43;;;12.50;1.00;;;;;;5090464;28;20543;-74
2024/03/03 08:41:48;;;;;;;38.30;34.20;;;12.60;1.00;;;;;;5095015;28;20553;-74
2024/03/03 08:44:15;;;;;;;38.63;31.37;;;12.80;1.00;;;;;;5090626;27;20542;-76
2024/03/03 08:46:42;;;;;;;37.10;33.10;;;13.00;1.00;;;;;;5097461;27;21031;-74
2024/03/03 08:49:11;;;;;;;36.50;32.77;;;13.10;1.00;;;;;;5090474;28;20552;-73
2024/03/03 08:51:39;;;;;;;34.67;31.10;;;13.20;1.00;;;;;;5078700;28;20472;-72
2024/03/03 08:54:06;;;;;;;36.30;32.53;;;13.50;1.00;;;;;;5097251;27;20467;-72
2024/03/03 08:56:34;;;;;;;36.40;32.50;;;14.00;1.00;;;;;;5114196;27;20534;-73
2024/03/03 08:59:01;;;;;;;37.10;31.67;;;14.50;1.00;;;;;;5112947;27;20495;-75
2024/03/03 09:01:30;;;;;;;32.93;29.47;;;15.10;1.00;;;;;;5102006;28;20485;-74
2024/03/03 09:03:57;;;;;;;33.00;29.30;;;15.70;1.00;;;;;;5100969;27;20445;-75
2024/03/03 09:06:24;;;;;;;31.80;28.63;;;16.20;1.00;;;;;;5091207;28;21043;-74
2024/03/03 09:08:50;;;;;;;33.37;30.00;;;16.20;1.00;;;;;;5089802;28;20483;-73
2024/03/03 09:11:18;;;;;;;30.70;27.70;;;16.40;1.00;;;;;;5087191;28;20502;-72
2024/03/03 09:13:47;;;;;;;31.13;27.83;;;17.00;1.00;;;;;;5091648;28;20446;-75
2024/03/03 09:16:14;;;;;;;27.20;24.40;;;17.60;1.00;;;;;;5088215;28;20960;-74
2024/03/03 09:18:44;;;;;;;30.60;27.30;;;18.10;1.00;;;;;;5090081;28;20463;-72
2024/03/03 09:21:13;;;;;;;28.67;25.80;;;18.60;1.00;;;;;;5090502;28;20461;-75
2024/03/03 09:23:41;;;;;;;27.47;24.77;;;19.10;1.00;;;;;;5093521;28;20864;-74
2024/03/03 09:26:08;;;;;;;26.73;23.93;;;19.40;1.00;;;;;;5089193;28;20464;-74
2024/03/03 09:28:36;;;;;;;27.50;24.93;;;19.60;1.00;;;;;;5109154;27;20479;-74
2024/03/03 09:31:05;;;;;;;26.20;23.60;;;19.20;1.00;;;;;;5105441;27;20547;-77
2024/03/03 09:33:38;;;;;;;25.57;22.67;;;19.50;1.00;;;;;;5090004;28;20440;-74
2024/03/03 09:36:07;;;;;;;24.33;22.00;;;20.10;1.00;;;;;;5093612;28;20469;-74
2024/03/03 09:38:34;;;;;;;25.77;23.30;;;20.30;1.00;;;;;;5098766;27;20458;-73
2024/03/03 09:41:01;;;;;;;48.87;39.50;;;20.00;1.00;;;;;;5090218;28;20535;-75
2024/03/03 09:43:33;;;;;;;24.30;21.70;;;20.60;1.00;;;;;;5088780;28;20440;-75
2024/03/03 09:46:00;;;;;;;24.27;21.77;;;21.00;1.00;;;;;;5106842;27;20472;-75
2024/03/03 09:48:29;;;;;;;26.73;21.60;;;21.20;1.00;;;;;;5099598;27;20538;-75
2024/03/03 09:50:58;;;;;;;22.10;20.00;;;21.50;1.00;;;;;;5087773;28;20494;-73
2024/03/03 09:53:26;;;;;;;23.53;21.23;;;21.80;1.00;;;;;;5087584;28;20446;-76
2024/03/03 09:55:56;;;;;;;23.10;20.80;;;21.90;1.00;;;;;;5089633;28;20495;-78
2024/03/03 09:58:24;;;;;;;22.27;19.93;;;21.70;1.00;;;;;;5090643;27;20458;-77
2024/03/03 10:00:53;;;;;;;20.93;18.93;;;21.40;1.00;;;;;;5092270;28;20473;-78
2024/03/03 10:03:22;;;;;;;22.23;19.87;;;20.60;1.00;;;;;;5087649;27;20483;-77
2024/03/03 10:05:54;;;;;;;21.83;19.77;;;19.60;1.00;;;;;;5103859;27;20464;-78
2024/03/03 10:08:23;;;;;;;22.13;20.10;;;18.70;1.00;;;;;;5102117;27;20449;-77
2024/03/03 10:10:55;;;;;;;21.20;19.30;;;18.50;1.00;;;;;;5107804;27;20563;-78
2024/03/03 10:13:25;;;;;;;20.87;18.87;;;18.60;1.00;;;;;;5093890;27;20511;-76
2024/03/03 10:15:55;;;;;;;21.20;19.00;;;18.60;1.00;;;;;;5101174;27;20536;-78
2024/03/03 10:18:22;;;;;;;25.13;19.50;;;18.60;1.00;;;;;;5093975;27;20537;-78
2024/03/03 10:20:52;;;;;;;21.00;19.00;;;18.80;1.00;;;;;;5116976;27;20994;-78
2024/03/03 10:23:23;;;;;;;21.37;19.37;;;19.10;1.00;;;;;;5092667;27;20462;-78
2024/03/03 10:25:55;;;;;;;18.27;16.57;;;19.70;1.00;;;;;;5091106;28;20442;-79
2024/03/03 10:28:22;;;;;;;19.17;17.30;;;20.30;1.00;;;;;;5106085;27;20458;-77
2024/03/03 10:30:51;;;;;;;20.63;18.57;;;20.20;1.00;;;;;;5113600;27;21069;-79
2024/03/03 10:33:19;;;;;;;21.47;19.23;;;20.20;1.00;;;;;;5109192;28;20462;-77
2024/03/03 10:35:46;;;;;;;17.60;15.80;;;20.60;1.00;;;;;;5110807;27;20589;-79
2024/03/03 10:38:14;;;;;;;18.43;16.90;;;21.00;1.00;;;;;;5113667;27;20443;-76
2024/03/03 10:40:44;;;;;;;16.60;15.00;;;21.30;1.00;;;;;;5105342;27;20503;-76
2024/03/03 10:43:12;;;;;;;20.73;17.07;;;21.20;1.00;;;;;;5093069;27;20815;-79
2024/03/03 10:45:39;;;;;;;18.23;16.63;;;20.70;1.00;;;;;;5099950;27;20450;-77
2024/03/03 10:48:07;;;;;;;18.80;16.90;;;20.00;1.00;;;;;;5101606;27;20525;-77
2024/03/03 10:50:34;;;;;;;18.97;17.07;;;19.50;1.00;;;;;;5089528;27;20459;-76
2024/03/03 10:53:01;;;;;;;18.13;16.40;;;19.80;1.00;;;;;;5094099;27;20514;-77
2024/03/03 10:55:31;;;;;;;18.87;17.13;;;19.80;1.00;;;;;;5088226;28;20566;-78
2024/03/03 10:58:02;;;;;;;20.07;17.97;;;19.60;1.00;;;;;;5097541;27;20469;-76
2024/03/03 11:00:32;;;;;;;17.43;15.63;;;19.00;1.00;;;;;;5091191;28;20487;-77
2024/03/03 11:03:00;;;;;;;18.37;16.57;;;18.30;1.00;;;;;;5087951;28;20453;-78
2024/03/03 11:05:28;;;;;;;17.70;16.03;;;17.90;1.00;;;;;;5074371;28;20608;-76
2024/03/03 11:07:57;;;;;;;23.73;16.60;;;17.50;1.00;;;;;;5092720;28;20472;-77
2024/03/03 11:10:25;;;;;;;19.57;17.67;;;17.10;1.00;;;;;;5111341;27;20467;-77
2024/03/03 11:12:58;;;;;;;21.47;17.83;;;16.90;1.00;;;;;;5110334;27;20453;-76
2024/03/03 11:15:27;;;;;;;19.03;17.23;;;16.80;1.00;;;;;;5113485;27;20469;-77
2024/03/03 11:18:04;;;;;;;19.00;17.00;;;16.70;1.00;;;;;;5101938;27;20514;-77
2024/03/03 11:20:35;;;;;;;19.93;18.03;;;16.70;1.00;;;;;;5105540;27;20457;-77
2024/03/03 11:23:14;;;;;;;20.33;17.83;;;16.90;1.00;;;;;;5115614;27;20469;-76
2024/03/03 11:25:47;;;;;;;20.53;18.37;;;17.00;1.00;;;;;;5114325;27;20540;-76
2024/03/03 11:28:23;;;;;;;20.30;18.20;;;16.90;1.00;;;;;;5112874;27;20938;-75
2024/03/03 11:30:51;;;;;;;21.03;18.90;;;16.70;1.00;;;;;;5101420;27;20964;-77
2024/03/03 11:33:19;;;;;;;19.00;17.00;;;16.60;1.00;;;;;;5115236;27;20413;-76
2024/03/03 11:35:47;;;;;;;20.00;18.00;;;16.60;1.00;;;;;;5115777;27;20482;-76
2024/03/03 11:38:15;;;;;;;25.23;18.60;;;16.70;1.00;;;;;;5116026;27;20521;-77
2024/03/03 11:40:43;;;;;;;18.97;17.17;;;18.60;1.00;;;;;;5114402;27;20484;-77
2024/03/03 11:43:11;;;;;;;25.13;22.97;;;21.40;1.00;;;;;;5104460;27;20453;-78
2024/03/03 11:45:44;;;;;;;16.30;14.73;;;23.30;1.00;;;;;;5095201;28;20521;-78
2024/03/03 11:48:15;;;;;;;17.20;15.60;;;24.70;1.00;;;;;;5093539;27;20480;-76
2024/03/03 11:50:43;;;;;;;16.47;14.87;;;25.90;1.00;;;;;;5105210;27;20995;-78
2024/03/03 11:53:10;;;;;;;17.20;15.60;;;24.60;1.00;;;;;;5098167;28;20451;-79
2024/03/03 11:55:39;;;;;;;17.63;16.13;;;22.70;1.00;;;;;;5096534;28;20546;-76
2024/03/03 11:58:07;;;;;;;18.90;17.20;;;21.30;1.00;;;;;;5114987;27;20431;-76
2024/03/03 12:00:35;;;;;;;19.70;17.77;;;20.70;1.00;;;;;;5100219;27;21045;-78
2024/03/03 12:03:04;;;;;;;17.87;16.30;;;20.10;1.00;;;;;;5103178;27;20442;-78
2024/03/03 12:05:31;;;;;;;19.20;17.20;;;19.80;1.00;;;;;;5092525;28;20543;-76
2024/03/03 12:07:58;;;;;;;18.60;16.67;;;19.30;1.00;;;;;;5091919;28;20471;-77
2024/03/03 12:10:30;;;;;;;17.03;15.23;;;18.80;1.00;;;;;;5091703;28;20482;-76
2024/03/03 12:13:00;;;;;;;19.33;17.30;;;18.40;1.00;;;;;;5091501;28;20532;-76
2024/03/03 12:15:29;;;;;;;18.37;16.43;;;18.20;1.00;;;;;;5091849;28;20434;-73
2024/03/03 12:17:57;;;;;;;18.37;16.47;;;18.00;1.00;;;;;;5073010;28;20474;-74
2024/03/03 12:20:27;;;;;;;18.20;16.40;;;17.90;1.00;;;;;;5091959;28;20513;-72
2024/03/03 12:22:56;;;;;;;17.00;15.43;;;17.90;1.00;;;;;;5091234;27;20454;-75
2024/03/03 12:25:23;;;;;;;20.53;15.63;;;18.00;1.00;;;;;;5091332;28;20546;-75
2024/03/03 12:27:52;;;;;;;17.70;15.97;;;17.90;1.00;;;;;;5089886;27;20485;-74
2024/03/03 12:30:27;;;;;;;16.17;14.57;;;17.70;1.00;;;;;;5092611;28;20550;-75
2024/03/03 12:32:54;;;;;;;15.20;13.60;;;17.60;1.00;;;;;;5090286;28;20496;-74
2024/03/03 12:35:21;;;;;;;17.33;15.63;;;17.30;1.00;;;;;;5088680;28;20543;-72
2024/03/03 12:37:49;;;;;;;16.17;14.77;;;17.30;1.00;;;;;;5094101;28;20467;-74
2024/03/03 12:40:16;;;;;;;14.87;13.60;;;17.20;1.00;;;;;;5087343;28;20503;-73
2024/03/03 12:42:43;;;;;;;14.67;13.27;;;16.80;1.00;;;;;;5089969;28;21040;-74
2024/03/03 12:45:14;;;;;;;14.87;13.20;;;16.80;1.00;;;;;;5101994;27;20808;-73
2024/03/03 12:47:42;;;;;;;14.73;13.30;;;16.60;1.00;;;;;;5092424;27;20454;-74